Time;durP1;ratioP1;P1;durP2;ratioP2;P2;SDS_P1;SDS_P2;PMS_P1;PMS_P2;Temp;Humidity;BMP_temperature;BMP_pressure;BME280_temperature;BME280_humidity;BME280_pressure;Samples;Min_cycle;Max_cycle;Signal;HPM_P1;HPM_P2
2022/04/26 03:37:12;;;;;;;16.33;6.65;;;;;;;;;;5100703;28;20046;-75
2022/04/26 03:39:38;;;;;;;20.85;8.45;;;;;;;;;;5109860;28;20051;-75
2022/04/26 03:42:04;;;;;;;24.20;9.77;;;;;;;;;;5111119;28;20019;-75
2022/04/26 03:44:29;;;;;;;22.50;8.90;;;;;;;;;;5110979;28;20148;-75
2022/04/26 03:46:54;;;;;;;21.20;9.77;;;;;;;;;;5111207;28;20362;-75
2022/04/26 03:49:23;;;;;;;21.08;9.15;;;;;;;;;;5111656;28;20506;-75
2022/04/26 03:51:49;;;;;;;13.73;7.45;;;;;;;;;;5111713;28;20084;-75
2022/04/26 03:54:14;;;;;;;17.38;7.75;;;;;;;;;;5112258;28;20012;-75
2022/04/26 03:56:39;;;;;;;11.00;6.07;;;;;;;;;;5111666;28;20067;-75
2022/04/26 03:59:04;;;;;;;11.07;6.45;;;;;;;;;;5111444;28;20042;-75
2022/04/26 04:01:30;;;;;;;10.15;5.78;;;;;;;;;;5111219;28;20016;-75
2022/04/26 04:03:55;;;;;;;7.18;4.88;;;;;;;;;;5110465;28;20078;-76
2022/04/26 04:06:20;;;;;;;10.82;5.28;;;;;;;;;;5110565;28;20051;-74
2022/04/26 04:08:46;;;;;;;8.43;5.00;;;;;;;;;;5110564;28;20539;-75
2022/04/26 04:11:11;;;;;;;11.50;5.73;;;;;;;;;;5110655;28;20248;-77
2022/04/26 04:13:36;;;;;;;10.23;4.53;;;;;;;;;;5110636;28;20260;-75
2022/04/26 04:16:01;;;;;;;9.48;4.90;;;;;;;;;;5109276;28;20080;-75
2022/04/26 04:21:11;;;;;;;11.85;6.72;;;;;;;;;;5115415;28;20334;-73
2022/04/26 04:23:36;;;;;;;12.98;8.32;;;;;;;;;;5118887;28;20440;-75
2022/04/26 04:26:02;;;;;;;11.60;6.63;;;;;;;;;;5129704;27;20031;-74
2022/04/26 04:28:28;;;;;;;8.77;5.68;;;;;;;;;;5114006;28;20048;-76
2022/04/26 04:30:53;;;;;;;9.20;5.60;;;;;;;;;;5115186;28;20016;-82
2022/04/26 04:33:18;;;;;;;7.68;5.43;;;;;;;;;;5114970;28;20039;-82
2022/04/26 04:35:43;;;;;;;7.65;4.97;;;;;;;;;;5116065;28;20483;-80
2022/04/26 04:38:09;;;;;;;9.27;4.80;;;;;;;;;;5096468;28;20038;-84
2022/04/26 04:40:34;;;;;;;10.48;4.85;;;;;;;;;;5096410;28;20488;-84
2022/04/26 04:42:59;;;;;;;8.10;5.07;;;;;;;;;;5094237;28;20020;-77
2022/04/26 04:45:24;;;;;;;7.63;5.13;;;;;;;;;;5101197;28;20259;-78
2022/04/26 04:47:50;;;;;;;8.95;4.97;;;;;;;;;;5103610;28;20061;-76
2022/04/26 04:50:15;;;;;;;8.23;4.72;;;;;;;;;;5104301;28;20020;-77
2022/04/26 04:52:40;;;;;;;11.38;5.80;;;;;;;;;;5100284;28;20024;-79
2022/04/26 04:55:06;;;;;;;9.10;5.50;;;;;;;;;;5092817;28;20058;-76
2022/04/26 04:57:31;;;;;;;8.40;5.70;;;;;;;;;;5093173;28;20081;-75
2022/04/26 04:59:59;;;;;;;13.82;6.57;;;;;;;;;;5091930;28;20024;-75
2022/04/26 05:02:24;;;;;;;8.00;5.30;;;;;;;;;;5094206;28;20028;-78
2022/04/26 05:04:50;;;;;;;8.10;5.22;;;;;;;;;;5096936;28;20091;-79
2022/04/26 05:07:15;;;;;;;9.15;5.07;;;;;;;;;;5097072;28;20024;-75
2022/04/26 05:09:41;;;;;;;9.40;5.28;;;;;;;;;;5093507;28;20073;-75
2022/04/26 05:12:07;;;;;;;8.18;5.20;;;;;;;;;;5093408;28;20035;-75
2022/04/26 05:14:32;;;;;;;7.97;5.20;;;;;;;;;;5093320;28;20091;-76
2022/04/26 05:16:57;;;;;;;10.03;5.57;;;;;;;;;;5093412;28;20031;-80
2022/04/26 05:19:22;;;;;;;9.13;5.38;;;;;;;;;;5093657;28;20264;-76
2022/04/26 05:21:48;;;;;;;8.98;5.78;;;;;;;;;;5094345;28;20008;-78
2022/04/26 05:26:57;;;;;;;9.18;5.10;;;;;;;;;;5105774;28;20039;-77
2022/04/26 05:29:22;;;;;;;11.02;6.15;;;;;;;;;;5114894;28;20043;-78
2022/04/26 05:31:47;;;;;;;9.73;6.10;;;;;;;;;;5124026;28;20035;-77
2022/04/26 05:34:13;;;;;;;8.93;5.20;;;;;;;;;;5116015;28;20045;-76
2022/04/26 05:36:38;;;;;;;7.38;5.53;;;;;;;;;;5111584;28;20464;-76
2022/04/26 05:39:03;;;;;;;8.82;5.50;;;;;;;;;;5112887;28;20023;-75
2022/04/26 05:41:28;;;;;;;7.50;5.45;;;;;;;;;;5113160;28;20543;-74
2022/04/26 05:43:54;;;;;;;6.45;4.80;;;;;;;;;;5113165;28;20061;-75
2022/04/26 05:46:19;;;;;;;9.83;5.80;;;;;;;;;;5113004;28;20023;-75
2022/04/26 05:48:44;;;;;;;9.70;5.20;;;;;;;;;;5111194;28;20271;-75
2022/04/26 05:51:09;;;;;;;8.60;5.28;;;;;;;;;;5112507;28;20055;-74
2022/04/26 05:53:35;;;;;;;10.95;5.53;;;;;;;;;;5112381;28;20444;-76
2022/04/26 05:56:00;;;;;;;8.63;5.30;;;;;;;;;;5112247;28;20380;-74
2022/04/26 05:58:25;;;;;;;11.30;5.38;;;;;;;;;;5112192;28;20024;-75
2022/04/26 06:00:51;;;;;;;10.13;5.57;;;;;;;;;;5112679;28;20015;-79
2022/04/26 06:03:16;;;;;;;9.88;6.80;;;;;;;;;;5113128;28;20267;-76
2022/04/26 06:05:41;;;;;;;9.07;5.57;;;;;;;;;;5112484;28;20016;-75
2022/04/26 06:08:08;;;;;;;9.48;5.50;;;;;;;;;;5112292;28;20024;-75
2022/04/26 06:10:35;;;;;;;8.32;5.57;;;;;;;;;;5111281;28;20396;-75
2022/04/26 06:13:00;;;;;;;9.02;5.47;;;;;;;;;;5112442;28;20023;-75
2022/04/26 06:15:25;;;;;;;7.93;5.68;;;;;;;;;;5112436;28;20034;-76
2022/04/26 06:17:50;;;;;;;11.85;7.00;;;;;;;;;;5112089;28;20023;-75
2022/04/26 06:20:16;;;;;;;19.65;9.23;;;;;;;;;;5111436;28;20016;-75
2022/04/26 06:22:41;;;;;;;10.90;7.13;;;;;;;;;;5111409;28;20023;-76
2022/04/26 06:25:07;;;;;;;15.82;9.23;;;;;;;;;;5111740;28;20016;-75
2022/04/26 06:27:33;;;;;;;23.00;10.75;;;;;;;;;;5112000;28;20024;-75
2022/04/26 06:30:00;;;;;;;27.42;13.40;;;;;;;;;;5111826;28;20504;-75
2022/04/26 06:32:26;;;;;;;21.30;12.02;;;;;;;;;;5113298;28;20080;-75
2022/04/26 06:34:51;;;;;;;16.05;9.20;;;;;;;;;;5113222;28;20047;-75
2022/04/26 06:37:16;;;;;;;15.40;8.35;;;;;;;;;;5113232;28;20042;-75
2022/04/26 06:39:41;;;;;;;12.40;7.15;;;;;;;;;;5113648;28;20016;-75
2022/04/26 06:42:07;;;;;;;11.10;6.40;;;;;;;;;;5112768;28;20042;-74
2022/04/26 06:44:32;;;;;;;11.27;7.72;;;;;;;;;;5111547;28;20338;-75
2022/04/26 06:46:57;;;;;;;11.98;6.35;;;;;;;;;;5110725;28;20032;-75
2022/04/26 06:49:23;;;;;;;13.37;5.60;;;;;;;;;;5110439;28;20016;-74
2022/04/26 06:51:48;;;;;;;9.07;5.80;;;;;;;;;;5111587;28;20274;-74
2022/04/26 06:54:13;;;;;;;9.88;6.18;;;;;;;;;;5110491;28;20038;-75
2022/04/26 06:56:45;;;;;;;8.77;5.40;;;;;;;;;;5112576;28;20114;-75
2022/04/26 06:59:11;;;;;;;10.43;6.53;;;;;;;;;;5113033;28;21371;-75
2022/04/26 07:01:36;;;;;;;8.97;5.63;;;;;;;;;;5111032;28;20115;-75
2022/04/26 07:04:02;;;;;;;8.40;5.65;;;;;;;;;;5112775;28;20292;-75
2022/04/26 07:06:27;;;;;;;8.35;5.60;;;;;;;;;;5111937;28;20028;-75
2022/04/26 07:08:52;;;;;;;10.73;5.05;;;;;;;;;;5111708;28;20470;-76
2022/04/26 07:11:18;;;;;;;6.60;4.40;;;;;;;;;;5111612;28;20076;-74
2022/04/26 07:13:43;;;;;;;9.93;6.32;;;;;;;;;;5110999;28;20248;-75
2022/04/26 07:16:09;;;;;;;10.95;7.55;;;;;;;;;;5111078;28;20026;-75
2022/04/26 07:18:34;;;;;;;12.27;8.25;;;;;;;;;;5111255;28;20505;-76
2022/04/26 07:20:59;;;;;;;12.60;7.63;;;;;;;;;;5111278;28;20022;-75
2022/04/26 07:23:25;;;;;;;12.35;7.30;;;;;;;;;;5111397;28;20464;-76
2022/04/26 07:25:52;;;;;;;13.90;6.87;;;;;;;;;;5110217;28;20015;-75
2022/04/26 07:28:19;;;;;;;11.30;6.05;;;;;;;;;;5109499;28;20762;-75
2022/04/26 07:30:44;;;;;;;11.23;6.35;;;;;;;;;;5109861;28;20019;-76
2022/04/26 07:35:54;;;;;;;10.43;5.80;;;;;;;;;;5111617;28;20059;-74
2022/04/26 07:38:19;;;;;;;8.77;5.38;;;;;;;;;;5111024;28;20500;-75
2022/04/26 07:40:45;;;;;;;9.55;5.97;;;;;;;;;;5095557;28;20023;-75
2022/04/26 07:43:10;;;;;;;9.23;6.05;;;;;;;;;;5116336;28;20471;-75
2022/04/26 07:45:39;;;;;;;11.23;4.72;;;;;;;;;;5114231;28;20441;-76
2022/04/26 07:48:05;;;;;;;9.18;5.43;;;;;;;;;;5111240;28;20020;-74
2022/04/26 07:50:35;;;;;;;6.45;4.25;;;;;;;;;;5110892;28;20028;-74
2022/04/26 07:53:00;;;;;;;6.90;4.97;;;;;;;;;;5109655;28;20012;-73
2022/04/26 07:55:26;;;;;;;7.72;4.93;;;;;;;;;;5114198;28;20080;-75
2022/04/26 07:57:51;;;;;;;7.53;4.65;;;;;;;;;;5113216;28;20392;-76
2022/04/26 08:00:17;;;;;;;7.38;4.82;;;;;;;;;;5115072;28;20019;-76
2022/04/26 08:02:42;;;;;;;7.22;4.30;;;;;;;;;;5115123;28;20031;-75
2022/04/26 08:05:08;;;;;;;7.68;4.50;;;;;;;;;;5112802;28;20023;-75
2022/04/26 08:07:39;;;;;;;6.55;4.20;;;;;;;;;;5114757;28;20016;-75
2022/04/26 08:10:05;;;;;;;7.95;4.13;;;;;;;;;;5114766;28;20188;-75
2022/04/26 08:12:30;;;;;;;6.18;3.72;;;;;;;;;;5115135;28;20107;-75
2022/04/26 08:14:58;;;;;;;7.00;4.00;;;;;;;;;;5104812;28;20095;-76
2022/04/26 08:17:23;;;;;;;5.53;3.42;;;;;;;;;;5102789;28;20894;-74
2022/04/26 08:19:48;;;;;;;6.77;4.07;;;;;;;;;;5102020;28;20122;-75
2022/04/26 08:22:13;;;;;;;5.43;3.30;;;;;;;;;;5101976;28;20322;-77
2022/04/26 08:27:22;;;;;;;5.70;3.35;;;;;;;;;;5092945;28;20049;-76
2022/04/26 08:29:48;;;;;;;6.55;3.33;;;;;;;;;;5100959;28;20216;-76
2022/04/26 08:32:13;;;;;;;6.15;3.60;;;;;;;;;;5102966;28;20059;-75
2022/04/26 08:34:39;;;;;;;4.90;3.40;;;;;;;;;;5101613;28;20546;-75
2022/04/26 08:37:04;;;;;;;6.15;3.10;;;;;;;;;;5100985;28;20783;-76
2022/04/26 08:39:29;;;;;;;4.38;3.08;;;;;;;;;;5103854;28;20016;-74
2022/04/26 08:41:59;;;;;;;4.87;3.00;;;;;;;;;;5102179;28;20472;-74
2022/04/26 08:44:27;;;;;;;6.25;3.38;;;;;;;;;;5100580;28;20782;-75
2022/04/26 08:52:25;;;;;;;5.15;3.22;;;;;;;;;;5103535;28;20126;-75
2022/04/26 08:54:50;;;;;;;6.18;3.65;;;;;;;;;;5103411;28;20024;-75
2022/04/26 08:57:16;;;;;;;4.45;3.15;;;;;;;;;;5108914;28;20051;-86
2022/04/26 08:59:51;;;;;;;6.65;3.72;;;;;;;;;;5112354;28;20027;-84
2022/04/26 09:02:18;;;;;;;6.32;3.60;;;;;;;;;;5116440;28;20036;-88
2022/04/26 09:04:44;;;;;;;6.20;3.45;;;;;;;;;;5122410;28;20031;-87
2022/04/26 09:07:26;;;;;;;7.05;3.22;;;;;;;;;;5122385;28;20016;-87
2022/04/26 09:10:01;;;;;;;4.45;3.10;;;;;;;;;;5121150;28;20028;-85
2022/04/26 09:12:26;;;;;;;;;;;;;;;;;;5124619;28;20019;-91
2022/04/26 09:14:51;;;;;;;;;;;;;;;;;;5115503;28;19918;-89
2022/04/26 09:17:17;;;;;;;6.13;3.70;;;;;;;;;;5111580;28;19916;-87
2022/04/26 09:19:43;;;;;;;6.07;3.45;;;;;;;;;;5113917;28;20014;-83
2022/04/26 09:22:14;;;;;;;4.10;3.00;;;;;;;;;;5115790;28;20028;-82
2022/04/26 09:25:03;;;;;;;8.07;3.15;;;;;;;;;;5101991;28;20094;-80
2022/04/26 09:27:29;;;;;;;6.65;3.28;;;;;;;;;;5096695;28;20092;-84
2022/04/26 09:29:54;;;;;;;4.05;2.58;;;;;;;;;;5108417;28;20071;-85
2022/04/26 09:32:19;;;;;;;4.30;2.67;;;;;;;;;;5099791;28;20023;-75
2022/04/26 09:34:44;;;;;;;5.60;3.15;;;;;;;;;;5103031;28;20020;-78
2022/04/26 09:37:11;;;;;;;4.50;2.85;;;;;;;;;;5094886;28;20687;-82
2022/04/26 09:39:39;;;;;;;5.47;2.97;;;;;;;;;;5100041;28;20072;-83
2022/04/26 09:42:04;;;;;;;8.23;3.60;;;;;;;;;;5102841;28;20561;-81
2022/04/26 09:44:33;;;;;;;8.15;3.33;;;;;;;;;;5093941;28;20012;-83
2022/04/26 09:46:59;;;;;;;5.47;2.78;;;;;;;;;;5097908;28;20827;-79
2022/04/26 09:49:25;;;;;;;4.93;3.10;;;;;;;;;;5103597;28;20007;-83
2022/04/26 09:52:01;;;;;;;5.32;3.10;;;;;;;;;;5112121;28;20038;-82
2022/04/26 09:54:26;;;;;;;5.13;2.80;;;;;;;;;;5109218;28;20008;-78
2022/04/26 09:56:52;;;;;;;6.95;2.80;;;;;;;;;;5112980;28;20038;-81
2022/04/26 09:59:27;;;;;;;3.15;2.30;;;;;;;;;;5106117;28;20380;-78
2022/04/26 10:01:54;;;;;;;6.00;2.47;;;;;;;;;;5099892;28;20073;-85
2022/04/26 10:04:21;;;;;;;4.13;2.58;;;;;;;;;;5112583;28;20026;-84
2022/04/26 10:06:49;;;;;;;11.20;2.90;;;;;;;;;;5113835;28;20420;-82
2022/04/26 10:09:15;;;;;;;5.53;2.88;;;;;;;;;;5122463;28;20019;-77
2022/04/26 10:11:40;;;;;;;4.38;2.53;;;;;;;;;;5114457;28;20377;-82
2022/04/26 10:14:06;;;;;;;3.15;2.40;;;;;;;;;;5117433;28;20110;-81
2022/04/26 10:16:32;;;;;;;4.18;2.45;;;;;;;;;;5113200;28;20071;-83
2022/04/26 10:19:06;;;;;;;3.75;2.30;;;;;;;;;;5111435;28;20019;-80
2022/04/26 10:21:35;;;;;;;3.95;2.50;;;;;;;;;;5116325;28;20376;-82
2022/04/26 10:24:03;;;;;;;3.42;2.20;;;;;;;;;;5118268;28;20031;-81
2022/04/26 10:26:30;;;;;;;3.28;1.90;;;;;;;;;;5116314;28;20069;-85
2022/04/26 10:28:59;;;;;;;4.35;2.40;;;;;;;;;;5105827;28;20052;-79
2022/04/26 10:31:38;;;;;;;3.80;1.95;;;;;;;;;;5094148;28;20441;-79
2022/04/26 10:34:23;;;;;;;2.92;2.00;;;;;;;;;;5093271;28;20070;-81
2022/04/26 10:36:49;;;;;;;5.80;2.28;;;;;;;;;;5091216;28;20488;-77
2022/04/26 10:39:17;;;;;;;5.28;1.70;;;;;;;;;;5106666;28;20030;-80
2022/04/26 10:41:44;;;;;;;3.83;1.92;;;;;;;;;;5103663;28;20026;-78
2022/04/26 10:44:26;;;;;;;3.72;2.13;;;;;;;;;;5106106;28;20036;-80
2022/04/26 10:47:01;;;;;;;3.00;1.90;;;;;;;;;;5115290;28;20118;-86
2022/04/26 10:49:32;;;;;;;4.82;3.25;;;;;;;;;;5107147;28;20065;-83
2022/04/26 10:52:24;;;;;;;3.97;2.00;;;;;;;;;;5113074;28;20536;-89
2022/04/26 10:54:51;;;;;;;3.53;2.17;;;;;;;;;;5098788;28;20016;-86
2022/04/26 10:57:26;;;;;;;4.28;1.90;;;;;;;;;;5100861;28;20031;-81
2022/04/26 10:59:56;;;;;;;3.97;1.80;;;;;;;;;;5105778;28;20027;-90
2022/04/26 11:02:23;;;;;;;3.50;1.98;;;;;;;;;;5116367;28;20100;-85
2022/04/26 11:04:56;;;;;;;4.38;2.40;;;;;;;;;;5118385;28;20019;-88
2022/04/26 11:07:25;;;;;;;2.42;1.85;;;;;;;;;;5120470;28;20034;-87
2022/04/26 11:09:51;;;;;;;3.65;2.08;;;;;;;;;;5115545;28;20020;-83
2022/04/26 11:12:19;;;;;;;4.25;2.10;;;;;;;;;;5114878;28;20019;-85
2022/04/26 11:14:45;;;;;;;2.80;1.70;;;;;;;;;;5120463;28;20008;-82
2022/04/26 11:17:10;;;;;;;3.60;1.90;;;;;;;;;;5133609;28;20031;-84
2022/04/26 11:19:37;;;;;;;3.85;1.80;;;;;;;;;;5122090;28;20016;-84
2022/04/26 11:22:06;;;;;;;3.70;2.42;;;;;;;;;;5130592;28;20084;-87
2022/04/26 11:30:07;;;;;;;4.68;2.20;;;;;;;;;;5120856;28;20059;-85
2022/04/26 11:32:44;;;;;;;4.65;2.30;;;;;;;;;;5120859;28;20110;-83
2022/04/26 11:35:09;;;;;;;4.25;2.60;;;;;;;;;;5113586;28;20020;-83
2022/04/26 11:37:48;;;;;;;3.85;2.30;;;;;;;;;;5106841;28;20017;-88
2022/04/26 11:40:30;;;;;;;4.32;2.47;;;;;;;;;;5123283;28;20019;-89
2022/04/26 11:42:57;;;;;;;5.18;2.53;;;;;;;;;;5132260;28;20059;-86
2022/04/26 11:45:23;;;;;;;3.25;1.98;;;;;;;;;;5133871;28;20312;-85
2022/04/26 11:47:49;;;;;;;3.60;2.63;;;;;;;;;;5120879;28;20365;-82
2022/04/26 11:50:19;;;;;;;5.80;2.38;;;;;;;;;;5110387;28;20081;-77
2022/04/26 11:52:45;;;;;;;6.50;3.00;;;;;;;;;;5124724;28;20028;-85
2022/04/26 11:55:24;;;;;;;5.30;2.58;;;;;;;;;;5107265;28;20024;-82
2022/04/26 11:57:50;;;;;;;4.97;2.75;;;;;;;;;;5104330;28;20027;-80
2022/04/26 12:00:16;;;;;;;6.75;3.28;;;;;;;;;;5113454;28;20026;-85
2022/04/26 12:02:42;;;;;;;6.80;3.40;;;;;;;;;;5114479;28;20025;-85
2022/04/26 12:05:08;;;;;;;5.80;3.33;;;;;;;;;;5115620;28;20046;-83
2022/04/26 12:07:34;;;;;;;4.15;3.10;;;;;;;;;;5115828;28;20008;-81
2022/04/26 12:09:59;;;;;;;5.25;3.40;;;;;;;;;;5118390;28;20033;-85
2022/04/26 12:12:25;;;;;;;5.60;3.35;;;;;;;;;;5115428;28;20017;-83
2022/04/26 12:14:50;;;;;;;5.10;2.88;;;;;;;;;;5122762;28;20012;-84
2022/04/26 12:17:21;;;;;;;6.60;2.60;;;;;;;;;;5112210;28;20039;-85
2022/04/26 12:19:50;;;;;;;4.88;2.75;;;;;;;;;;5123889;28;20355;-85
2022/04/26 12:22:19;;;;;;;5.32;2.60;;;;;;;;;;5116430;28;20088;-83
2022/04/26 12:24:50;;;;;;;4.95;3.22;;;;;;;;;;5115755;28;20088;-81
2022/04/26 12:27:16;;;;;;;8.15;3.05;;;;;;;;;;5116444;28;20019;-84
2022/04/26 12:29:41;;;;;;;6.10;3.80;;;;;;;;;;5117056;28;20070;-85
2022/04/26 12:32:07;;;;;;;7.17;4.60;;;;;;;;;;5121739;28;20043;-83
2022/04/26 12:34:33;;;;;;;5.75;3.72;;;;;;;;;;5122157;28;20076;-83
2022/04/26 12:36:58;;;;;;;7.63;4.07;;;;;;;;;;5124046;28;20012;-85
2022/04/26 12:39:25;;;;;;;7.75;4.63;;;;;;;;;;5114035;28;20027;-80
2022/04/26 12:41:52;;;;;;;7.18;4.07;;;;;;;;;;5117143;28;20011;-82
2022/04/26 12:44:17;;;;;;;6.38;4.22;;;;;;;;;;5121850;28;20024;-86
2022/04/26 12:52:41;;;;;;;6.57;3.53;;;;;;;;;;5112459;28;20042;-81
2022/04/26 12:55:06;;;;;;;6.15;3.97;;;;;;;;;;5120155;28;20016;-86
2022/04/26 12:57:44;;;;;;;6.45;3.95;;;;;;;;;;5124781;28;20087;-82
2022/04/26 13:00:10;;;;;;;4.85;3.25;;;;;;;;;;5106349;28;20024;-83
2022/04/26 13:02:39;;;;;;;6.18;3.30;;;;;;;;;;5117443;28;20451;-87
2022/04/26 13:05:04;;;;;;;4.65;3.28;;;;;;;;;;5111248;28;20080;-82
2022/04/26 13:07:33;;;;;;;5.78;3.78;;;;;;;;;;5109915;28;20548;-84
2022/04/26 13:09:59;;;;;;;6.43;4.30;;;;;;;;;;5113541;28;20031;-87
2022/04/26 13:12:27;;;;;;;7.10;4.10;;;;;;;;;;5111207;28;20087;-85
2022/04/26 13:14:53;;;;;;;6.03;3.53;;;;;;;;;;5113197;28;20269;-84
2022/04/26 13:17:20;;;;;;;4.18;2.80;;;;;;;;;;5111744;28;20032;-85
2022/04/26 13:19:48;;;;;;;5.65;3.20;;;;;;;;;;5115640;28;20425;-85
2022/04/26 13:22:16;;;;;;;7.10;3.33;;;;;;;;;;5114599;28;20020;-89
2022/04/26 13:24:41;;;;;;;4.85;3.28;;;;;;;;;;5115452;28;20586;-84
2022/04/26 13:27:06;;;;;;;5.80;3.13;;;;;;;;;;5113516;28;20051;-80
2022/04/26 13:29:32;;;;;;;9.73;3.55;;;;;;;;;;5117710;28;20051;-83
2022/04/26 13:31:58;;;;;;;3.85;2.92;;;;;;;;;;5122539;28;20031;-83
2022/04/26 13:34:23;;;;;;;3.85;2.65;;;;;;;;;;5111068;28;20020;-82
2022/04/26 13:36:49;;;;;;;4.95;3.45;;;;;;;;;;5111443;28;20130;-87
2022/04/26 13:39:14;;;;;;;8.32;3.40;;;;;;;;;;5108537;28;20023;-81
2022/04/26 13:41:40;;;;;;;5.38;2.78;;;;;;;;;;5106756;28;20008;-86
2022/04/26 13:44:08;;;;;;;5.68;2.80;;;;;;;;;;5113467;28;20016;-86
2022/04/26 13:46:33;;;;;;;5.60;2.83;;;;;;;;;;5114495;28;20008;-85
2022/04/26 13:48:58;;;;;;;5.28;2.78;;;;;;;;;;5129245;28;20051;-84
2022/04/26 13:51:29;;;;;;;4.70;3.10;;;;;;;;;;5120329;28;20022;-82
2022/04/26 13:53:54;;;;;;;4.40;3.10;;;;;;;;;;5117875;28;20265;-86
2022/04/26 13:56:19;;;;;;;4.27;3.00;;;;;;;;;;5120348;28;20065;-86
2022/04/26 13:58:45;;;;;;;5.10;3.20;;;;;;;;;;5114139;28;20268;-83
2022/04/26 14:01:11;;;;;;;4.80;2.80;;;;;;;;;;5114028;28;20240;-90
2022/04/26 14:03:36;;;;;;;8.13;3.45;;;;;;;;;;5119127;28;20380;-83
2022/04/26 14:06:04;;;;;;;17.60;10.00;;;;;;;;;;5103516;28;20043;-85
2022/04/26 14:08:31;;;;;;;5.85;3.70;;;;;;;;;;5102885;28;20024;-86
2022/04/26 14:10:56;;;;;;;5.10;3.40;;;;;;;;;;5110160;28;20027;-88
2022/04/26 14:13:21;;;;;;;5.78;3.78;;;;;;;;;;5115547;28;20016;-81
2022/04/26 14:24:04;;;;;;;5.30;3.38;;;;;;;;;;5108362;28;20035;-85
2022/04/26 14:26:30;;;;;;;9.30;4.22;;;;;;;;;;5119573;28;20024;-84
2022/04/26 14:28:55;;;;;;;5.35;3.92;;;;;;;;;;5105992;28;20051;-82
2022/04/26 14:31:20;;;;;;;7.47;3.70;;;;;;;;;;5113519;28;20105;-83
2022/04/26 14:33:46;;;;;;;7.37;4.20;;;;;;;;;;5110765;28;20015;-81
2022/04/26 14:36:11;;;;;;;6.37;3.57;;;;;;;;;;5106017;28;20278;-79
2022/04/26 14:38:36;;;;;;;5.70;3.53;;;;;;;;;;5103920;28;20363;-84
2022/04/26 14:41:02;;;;;;;7.85;3.45;;;;;;;;;;5101850;28;20005;-80
2022/04/26 14:43:27;;;;;;;7.22;3.70;;;;;;;;;;5112086;28;20058;-82
2022/04/26 14:45:55;;;;;;;5.45;3.75;;;;;;;;;;5107481;28;20038;-80
2022/04/26 14:48:20;;;;;;;6.18;3.75;;;;;;;;;;5112293;28;20026;-89
2022/04/26 14:50:45;;;;;;;13.45;4.50;;;;;;;;;;5113886;28;20047;-85
2022/04/26 14:53:11;;;;;;;7.75;3.83;;;;;;;;;;5114864;28;20026;-85
2022/04/26 14:55:36;;;;;;;8.13;3.70;;;;;;;;;;5088068;28;20020;-80
2022/04/26 14:58:02;;;;;;;6.28;3.60;;;;;;;;;;5099025;28;20028;-75
2022/04/26 15:00:27;;;;;;;4.72;3.17;;;;;;;;;;5099676;28;20111;-77
2022/04/26 15:02:52;;;;;;;4.77;3.23;;;;;;;;;;5089959;28;20038;-75
2022/04/26 15:05:18;;;;;;;6.83;3.63;;;;;;;;;;5107402;28;20264;-75
2022/04/26 15:10:29;;;;;;;5.22;3.38;;;;;;;;;;5103588;28;20489;-74
2022/04/26 15:18:22;;;;;;;8.13;4.20;;;;;;;;;;5095854;28;20040;-77
2022/04/26 15:20:51;;;;;;;5.65;3.88;;;;;;;;;;5094911;28;20009;-76
2022/04/26 15:23:17;;;;;;;8.43;4.25;;;;;;;;;;5100709;28;20028;-75
2022/04/26 15:25:48;;;;;;;6.78;4.10;;;;;;;;;;5104302;28;20012;-78
2022/04/26 15:28:13;;;;;;;6.15;3.97;;;;;;;;;;5105117;28;20026;-76
2022/04/26 15:30:41;;;;;;;5.32;3.63;;;;;;;;;;5106316;28;20012;-76
2022/04/26 15:33:07;;;;;;;9.90;3.90;;;;;;;;;;5108508;28;20098;-76
2022/04/26 15:35:32;;;;;;;5.70;3.70;;;;;;;;;;5096069;28;20102;-76
2022/04/26 15:37:58;;;;;;;7.47;4.25;;;;;;;;;;5101203;28;20300;-76
2022/04/26 15:40:23;;;;;;;10.27;4.10;;;;;;;;;;5103087;28;20464;-74
2022/04/26 15:42:48;;;;;;;7.80;4.07;;;;;;;;;;5094619;28;20322;-77
2022/04/26 15:45:13;;;;;;;8.15;3.60;;;;;;;;;;5090295;28;20269;-75
2022/04/26 15:47:39;;;;;;;7.17;3.63;;;;;;;;;;5097913;28;20507;-75
2022/04/26 15:50:05;;;;;;;6.15;3.45;;;;;;;;;;5089373;28;20664;-76
2022/04/26 15:52:30;;;;;;;6.78;3.97;;;;;;;;;;5090622;28;20028;-76
2022/04/26 15:54:56;;;;;;;6.40;3.83;;;;;;;;;;5106620;28;20114;-76
2022/04/26 15:57:21;;;;;;;6.67;3.80;;;;;;;;;;5110265;28;20418;-76
2022/04/26 15:59:48;;;;;;;6.03;3.33;;;;;;;;;;5112599;28;20259;-77
2022/04/26 16:02:31;;;;;;;5.82;3.67;;;;;;;;;;5111560;28;20260;-77
2022/04/26 16:05:03;;;;;;;5.47;3.70;;;;;;;;;;5106718;28;20082;-75
2022/04/26 16:07:31;;;;;;;5.65;3.92;;;;;;;;;;5087072;28;20036;-78
2022/04/26 16:20:56;;;;;;;5.65;3.05;;;;;;;;;;5093711;28;20039;-75
2022/04/26 16:23:21;;;;;;;4.93;3.13;;;;;;;;;;5095077;28;20011;-75
2022/04/26 16:25:46;;;;;;;5.87;3.37;;;;;;;;;;5092040;28;20264;-76
2022/04/26 16:28:12;;;;;;;4.93;3.10;;;;;;;;;;5098152;28;20264;-76
2022/04/26 16:30:40;;;;;;;4.40;2.65;;;;;;;;;;5092969;28;20277;-76
2022/04/26 16:33:05;;;;;;;8.60;3.55;;;;;;;;;;5109775;28;20030;-76
2022/04/26 16:35:34;;;;;;;4.72;3.42;;;;;;;;;;5117570;28;20011;-75
2022/04/26 16:37:59;;;;;;;5.47;3.15;;;;;;;;;;5114889;27;20110;-75
2022/04/26 16:40:26;;;;;;;6.30;3.33;;;;;;;;;;5112566;28;20531;-76
2022/04/26 16:42:51;;;;;;;7.05;3.42;;;;;;;;;;5099119;28;20419;-76
2022/04/26 16:45:17;;;;;;;5.50;3.60;;;;;;;;;;5092301;28;20734;-74
2022/04/26 16:47:42;;;;;;;5.80;3.60;;;;;;;;;;5094787;28;20020;-77
2022/04/26 16:50:08;;;;;;;7.20;3.50;;;;;;;;;;5092827;28;20052;-77
2022/04/26 16:52:34;;;;;;;6.20;3.65;;;;;;;;;;5096817;28;20051;-75
2022/04/26 16:54:59;;;;;;;7.60;3.53;;;;;;;;;;5097629;28;20015;-76
2022/04/26 16:57:28;;;;;;;5.13;3.65;;;;;;;;;;5093539;28;20140;-77
2022/04/26 16:59:53;;;;;;;5.57;3.53;;;;;;;;;;5103648;28;20443;-75
2022/04/26 17:02:19;;;;;;;6.35;3.60;;;;;;;;;;5112900;28;20051;-76
2022/04/26 17:04:44;;;;;;;5.57;3.22;;;;;;;;;;5095131;28;20478;-74
2022/04/26 17:07:10;;;;;;;4.22;3.15;;;;;;;;;;5112192;28;20022;-76
2022/04/26 17:09:36;;;;;;;8.18;3.75;;;;;;;;;;5113444;28;20050;-75
2022/04/26 17:12:02;;;;;;;8.88;4.45;;;;;;;;;;5112705;28;20068;-78
2022/04/26 17:14:27;;;;;;;6.05;4.20;;;;;;;;;;5111668;28;20028;-75
2022/04/26 17:16:52;;;;;;;5.88;4.10;;;;;;;;;;5113643;28;20011;-74
2022/04/26 17:19:18;;;;;;;6.55;3.97;;;;;;;;;;5113189;28;20127;-75
2022/04/26 17:21:46;;;;;;;6.57;4.13;;;;;;;;;;5094446;28;20464;-74
2022/04/26 17:26:56;;;;;;;7.15;4.25;;;;;;;;;;5101377;28;20097;-75
2022/04/26 17:29:21;;;;;;;8.85;3.42;;;;;;;;;;5090023;28;20047;-76
2022/04/26 17:31:53;;;;;;;7.13;3.83;;;;;;;;;;5101407;28;20020;-76
2022/04/26 17:34:19;;;;;;;7.97;3.80;;;;;;;;;;5110336;28;22090;-75
2022/04/26 17:36:44;;;;;;;7.15;3.70;;;;;;;;;;5104442;28;20032;-75
2022/04/26 17:39:10;;;;;;;6.82;4.00;;;;;;;;;;5108479;28;20012;-75
2022/04/26 17:41:35;;;;;;;6.43;3.60;;;;;;;;;;5093607;28;20362;-78
2022/04/26 17:44:01;;;;;;;8.40;4.15;;;;;;;;;;5104242;28;20149;-76
2022/04/26 17:46:26;;;;;;;10.17;3.73;;;;;;;;;;5104222;28;20031;-75
2022/04/26 17:48:53;;;;;;;6.50;3.90;;;;;;;;;;5111072;28;20342;-76
2022/04/26 17:51:18;;;;;;;7.78;4.13;;;;;;;;;;5094373;28;20016;-74
2022/04/26 17:56:30;;;;;;;11.35;6.22;;;;;;;;;;5095035;28;20077;-75
2022/04/26 17:58:56;;;;;;;8.73;4.72;;;;;;;;;;5090633;28;20480;-75
2022/04/26 18:01:21;;;;;;;14.70;5.68;;;;;;;;;;5114961;28;20012;-85
2022/04/26 18:03:54;;;;;;;11.48;6.28;;;;;;;;;;5109197;28;20026;-82
2022/04/26 18:06:23;;;;;;;10.07;5.75;;;;;;;;;;5119851;28;20083;-88
2022/04/26 18:08:48;;;;;;;11.60;6.10;;;;;;;;;;5108671;28;20063;-84
2022/04/26 18:11:14;;;;;;;5.93;3.90;;;;;;;;;;5102117;28;20019;-80
2022/04/26 18:13:40;;;;;;;9.63;5.18;;;;;;;;;;5104861;28;20012;-82
2022/04/26 18:16:05;;;;;;;9.20;5.03;;;;;;;;;;5108405;28;20024;-82
2022/04/26 18:18:32;;;;;;;10.80;5.10;;;;;;;;;;5110458;28;20127;-83
2022/04/26 18:21:00;;;;;;;9.52;5.45;;;;;;;;;;5107021;28;20510;-85
2022/04/26 18:23:26;;;;;;;8.90;4.68;;;;;;;;;;5110927;28;20463;-77
2022/04/26 18:26:10;;;;;;;8.57;5.63;;;;;;;;;;5110982;28;20024;-85
2022/04/26 18:28:43;;;;;;;7.70;5.03;;;;;;;;;;5125998;28;20081;-84
2022/04/26 18:31:11;;;;;;;9.68;5.15;;;;;;;;;;5132332;28;20023;-86
2022/04/26 18:33:41;;;;;;;8.75;4.80;;;;;;;;;;5112177;28;20305;-84
2022/04/26 18:36:08;;;;;;;13.40;5.68;;;;;;;;;;5113832;28;20035;-86
2022/04/26 18:38:45;;;;;;;11.88;6.32;;;;;;;;;;5116598;28;20074;-79
2022/04/26 18:41:11;;;;;;;11.20;5.90;;;;;;;;;;5117973;28;20029;-85
2022/04/26 18:43:36;;;;;;;17.20;9.13;;;;;;;;;;5115305;28;20016;-77
2022/04/26 18:46:03;;;;;;;13.02;7.10;;;;;;;;;;5116432;28;20061;-83
2022/04/26 18:48:29;;;;;;;12.38;6.85;;;;;;;;;;5129907;28;20026;-85
2022/04/26 18:50:54;;;;;;;12.20;6.40;;;;;;;;;;5120104;28;20020;-75
2022/04/26 18:53:20;;;;;;;11.95;6.68;;;;;;;;;;5131310;27;20031;-84
2022/04/26 18:55:46;;;;;;;10.47;5.57;;;;;;;;;;5128322;28;20023;-78
2022/04/26 18:58:12;;;;;;;11.55;6.65;;;;;;;;;;5123354;28;20272;-85
2022/04/26 19:00:38;;;;;;;16.30;8.70;;;;;;;;;;5123815;28;20039;-82
2022/04/26 19:03:06;;;;;;;24.15;13.93;;;;;;;;;;5117681;28;20020;-73
2022/04/26 19:05:34;;;;;;;25.60;14.88;;;;;;;;;;5124976;28;20049;-83
2022/04/26 19:08:00;;;;;;;18.27;11.48;;;;;;;;;;5118147;28;20000;-84
2022/04/26 19:13:09;;;;;;;15.75;8.27;;;;;;;;;;5124644;28;20018;-88
2022/04/26 19:15:34;;;;;;;12.50;6.10;;;;;;;;;;5117107;28;20094;-82
2022/04/26 19:18:00;;;;;;;9.52;5.30;;;;;;;;;;5115799;28;20276;-86